Mt Bomar Mars — 9HCM9 — position and weather

sailwx.info

Track history (hours):
 
Tides and Currents Weather Stations Pressure Air Temp Water Temp Dewpoint Dewpoint Depression Visibility Wind Speed Wind Dir Waves Ship Positions

Mt Bomar Mars

Last reported at 2017-Aug-16 23:30 UTC. Time now 2017-Aug-16 23:31 UTC.
Position N 51°54' E 004°22'.

Length 107 m; draft 6.4 m.

Type: Ship (hazmat cat D). MMSI: 256784000.

Date/timePositionNaut miles runAvg speedWind from/ knotsBaromVisibWave heightAir tempDewpointWater temp
2017-Aug-16 23:30N 51°54' E 004°22'0 0.0
2017-Aug-16 23:00N 51°54' E 004°22'0 0.0
2017-Aug-16 22:30N 51°54' E 004°22'0 0.0
2017-Aug-16 22:00N 51°54' E 004°22'0 0.0
2017-Aug-16 21:29N 51°54' E 004°22'0 0.0
2017-Aug-16 21:00N 51°54' E 004°22'0 0.0
2017-Aug-16 20:30N 51°54' E 004°22'0 0.0
2017-Aug-16 20:00N 51°54' E 004°22'0 0.0
2017-Aug-16 19:30N 51°54' E 004°22'0 0.0
2017-Aug-16 19:00N 51°54' E 004°22'0 0.0
2017-Aug-16 18:30N 51°54' E 004°22'0 0.0
2017-Aug-16 18:00N 51°54' E 004°22'0 0.0
2017-Aug-16 17:30N 51°54' E 004°22'0 0.0
2017-Aug-16 17:00N 51°54' E 004°22'0 0.0
2017-Aug-16 16:30N 51°54' E 004°22'0 0.0
2017-Aug-16 16:00N 51°54' E 004°22'0 0.0
2017-Aug-16 15:30N 51°54' E 004°22'0 0.0
2017-Aug-16 15:00N 51°54' E 004°22'0 0.0
2017-Aug-16 14:30N 51°54' E 004°22'0 0.0
2017-Aug-16 14:00N 51°54' E 004°22'0 0.0
2017-Aug-16 13:30N 51°54' E 004°22'0 0.0
2017-Aug-16 13:00N 51°54' E 004°22'0 0.0
2017-Aug-16 12:30N 51°54' E 004°22'0 0.0
2017-Aug-16 12:00N 51°54' E 004°22'0 0.0
2017-Aug-16 11:30N 51°54' E 004°22'0 0.0
2017-Aug-16 11:00N 51°54' E 004°22'0 0.0
2017-Aug-16 10:30N 51°54' E 004°22'0 0.0
2017-Aug-16 09:59N 51°54' E 004°22'0 0.0
2017-Aug-16 09:30N 51°54' E 004°22'0 0.0
2017-Aug-16 09:00N 51°54' E 004°22'0 0.0
2017-Aug-16 08:30N 51°54' E 004°22'0 0.0
2017-Aug-16 07:59N 51°54' E 004°22'0 0.0
2017-Aug-16 07:30N 51°54' E 004°22'0 0.0
2017-Aug-16 07:00N 51°54' E 004°22'0 0.0
2017-Aug-16 06:30N 51°54' E 004°22'3 5.7
2017-Aug-16 06:01N 51°54' E 004°17'611.1
2017-Aug-16 05:30N 51°57' E 004°10'611.3
2017-Aug-16 05:00N 51°60' E 004°02'612.1
2017-Aug-16 04:30N 51°60' E 003°52'611.5
2017-Aug-16 04:00N 51°59' E 003°42'5 9.7
2017-Aug-16 03:30N 51°58' E 003°35'4 7.5
2017-Aug-16 03:00N 51°57' E 003°29'4 8.1
2017-Aug-16 02:30N 51°55' E 003°23'4 7.6
2017-Aug-16 02:00N 51°54' E 003°17'5 7.7
2017-Aug-16 01:18N 51°53' E 003°08'3 8.0
2017-Aug-16 00:55N 51°52' E 003°04'4 8.1
2017-Aug-16 00:28N 51°51' E 002°58'4 8.1
2017-Aug-16 00:01N 51°49' E 002°53'4 8.5
2017-Aug-15 23:30N 51°48' E 002°46'4 8.8
2017-Aug-15 23:00N 51°46' E 002°40'4 8.9
2017-Aug-15 22:30N 51°44' E 002°34'5 9.7
2017-Aug-15 22:00N 51°40' E 002°29'510.9
2017-Aug-15 21:30N 51°36' E 002°23'611.2
2017-Aug-15 21:00N 51°31' E 002°18'611.4
2017-Aug-15 20:30N 51°27' E 002°13'510.4
2017-Aug-15 20:00N 51°22' E 002°09'611.5
2017-Aug-15 19:30N 51°19' E 002°01'713.5
2017-Aug-15 19:00N 51°15' E 001°53'714.0
2017-Aug-15 18:30N 51°10' E 001°45'714.3
2017-Aug-15 18:01N 51°04' E 001°38'715.0
2017-Aug-15 17:30N 50°58' E 001°31'713.8
2017-Aug-15 17:00N 50°52' E 001°26'10113.1
2017-Aug-15 09:15N 50°08' W 000°58'311.7
2017-Aug-15 08:59N 50°07' W 001°02'511.3
2017-Aug-15 08:30N 50°06' W 001°10'611.0
2017-Aug-15 08:00N 50°04' W 001°19'510.5
2017-Aug-15 07:30N 50°03' W 001°27'510.3
2017-Aug-15 07:00N 50°01' W 001°34'510.1
2017-Aug-15 06:30N 50°00' W 001°42'510.0
2017-Aug-15 06:00N 49°59' W 001°50'510.3
2017-Aug-15 05:30N 49°58' W 001°57'510.8
2017-Aug-15 05:00N 49°56' W 002°06'611.7
2017-Aug-15 04:29N 49°55' W 002°15'2012.7
2017-Aug-15 02:55N 49°50' W 002°45'613.3
2017-Aug-15 02:30N 49°49' W 002°53'813.6
2017-Aug-15 01:55N 49°44' W 003°03'613.7
2017-Aug-15 01:30N 49°42' W 003°11'713.6
2017-Aug-15 01:00N 49°39' W 003°20'913.7
2017-Aug-15 00:22N 49°34' W 003°32'1213.8
2017-Aug-14 23:29N 49°28' W 003°48'5914.2
2017-Aug-14 19:20N 48°59' W 005°07'514.0
2017-Aug-14 19:00N 48°57' W 005°13'814.2
2017-Aug-14 18:27N 48°53' W 005°23'1113.8
2017-Aug-14 17:39N 48°46' W 005°37'313.7
2017-Aug-14 17:25N 48°43' W 005°39'3513.1
2017-Aug-14 14:44N 48°11' W 005°59'1112.4
2017-Aug-14 13:48N 47°60' W 006°05'  
2017-Aug-11 06:01N 47°17' W 002°10'013.3
2017-Aug-11 06:00N 47°17' W 002°10'4 7.4
2017-Aug-11 05:25N 47°18' W 002°04'0 0.0
2017-Aug-11 04:46N 47°18' W 002°04'0 0.0
2017-Aug-11 04:25N 47°18' W 002°04'0 0.0
2017-Aug-11 03:58N 47°18' W 002°04'0 0.0
2017-Aug-11 02:55N 47°18' W 002°04'0 0.0
2017-Aug-11 02:19N 47°18' W 002°04'0 0.0
2017-Aug-11 01:58N 47°18' W 002°04'0 0.0
2017-Aug-11 01:25N 47°18' W 002°04'0 0.0
2017-Aug-11 00:58N 47°18' W 002°04'0 0.0
2017-Aug-11 00:28N 47°18' W 002°04'0 0.0
2017-Aug-10 23:55N 47°18' W 002°04'0 0.0
2017-Aug-10 23:25N 47°18' W 002°04'0 0.0
2017-Aug-10 22:52N 47°18' W 002°04'0 0.0
2017-Aug-10 22:25N 47°18' W 002°04'0 0.0
2017-Aug-10 21:55N 47°18' W 002°04'0 0.0
2017-Aug-10 21:28N 47°18' W 002°04'0 0.0
2017-Aug-10 20:55N 47°18' W 002°04'0 0.0
2017-Aug-10 20:19N 47°18' W 002°04'0 0.0
2017-Aug-10 08:13N 47°18' W 002°04'0 0.0
2017-Aug-10 06:46N 47°18' W 002°04'0 0.0
2017-Aug-10 06:22N 47°18' W 002°04'0 0.0
2017-Aug-10 05:56N 47°18' W 002°04'1 1.7
2017-Aug-10 05:30N 47°18' W 002°05'  
2017-Aug-07 19:43N 47°08' W 002°26'0 0.1
2017-Aug-07 19:16N 47°08' W 002°26'0 0.0
2017-Aug-07 01:40N 47°08' W 002°26'0 0.0
2017-Aug-07 01:22N 47°08' W 002°26'0 0.0
2017-Aug-07 00:04N 47°08' W 002°26'0 0.0
2017-Aug-06 23:58N 47°08' W 002°26'0 0.0
2017-Aug-06 23:30N 47°08' W 002°26'  
Track history (hours):
 
Tides and Currents Weather Stations Pressure Air Temp Water Temp Dewpoint Dewpoint Depression Visibility Wind Speed Wind Dir Waves Ship Positions

Mt Bomar Mars

Last reported at 2017-Aug-16 23:30 UTC. Time now 2017-Aug-16 23:31 UTC.
Position N 51°54' E 004°22'.

Length 107 m; draft 6.4 m.

Type: Ship (hazmat cat D). MMSI: 256784000.

Date/timePositionNaut miles runAvg speedWind from/ knotsBaromVisibWave heightAir tempDewpointWater temp
2017-Aug-16 23:30N 51°54' E 004°22'0 0.0
2017-Aug-16 23:00N 51°54' E 004°22'0 0.0
2017-Aug-16 22:30N 51°54' E 004°22'0 0.0
2017-Aug-16 22:00N 51°54' E 004°22'0 0.0
2017-Aug-16 21:29N 51°54' E 004°22'0 0.0
2017-Aug-16 21:00N 51°54' E 004°22'0 0.0
2017-Aug-16 20:30N 51°54' E 004°22'0 0.0
2017-Aug-16 20:00N 51°54' E 004°22'0 0.0
2017-Aug-16 19:30N 51°54' E 004°22'0 0.0
2017-Aug-16 19:00N 51°54' E 004°22'0 0.0
2017-Aug-16 18:30N 51°54' E 004°22'0 0.0
2017-Aug-16 18:00N 51°54' E 004°22'0 0.0
2017-Aug-16 17:30N 51°54' E 004°22'0 0.0
2017-Aug-16 17:00N 51°54' E 004°22'0 0.0
2017-Aug-16 16:30N 51°54' E 004°22'0 0.0
2017-Aug-16 16:00N 51°54' E 004°22'0 0.0
2017-Aug-16 15:30N 51°54' E 004°22'0 0.0
2017-Aug-16 15:00N 51°54' E 004°22'0 0.0
2017-Aug-16 14:30N 51°54' E 004°22'0 0.0
2017-Aug-16 14:00N 51°54' E 004°22'0 0.0
2017-Aug-16 13:30N 51°54' E 004°22'0 0.0
2017-Aug-16 13:00N 51°54' E 004°22'0 0.0
2017-Aug-16 12:30N 51°54' E 004°22'0 0.0
2017-Aug-16 12:00N 51°54' E 004°22'0 0.0
2017-Aug-16 11:30N 51°54' E 004°22'0 0.0
2017-Aug-16 11:00N 51°54' E 004°22'0 0.0
2017-Aug-16 10:30N 51°54' E 004°22'0 0.0
2017-Aug-16 09:59N 51°54' E 004°22'0 0.0
2017-Aug-16 09:30N 51°54' E 004°22'0 0.0
2017-Aug-16 09:00N 51°54' E 004°22'0 0.0
2017-Aug-16 08:30N 51°54' E 004°22'0 0.0
2017-Aug-16 07:59N 51°54' E 004°22'0 0.0
2017-Aug-16 07:30N 51°54' E 004°22'0 0.0
2017-Aug-16 07:00N 51°54' E 004°22'0 0.0
2017-Aug-16 06:30N 51°54' E 004°22'3 5.7
2017-Aug-16 06:01N 51°54' E 004°17'611.1
2017-Aug-16 05:30N 51°57' E 004°10'611.3
2017-Aug-16 05:00N 51°60' E 004°02'612.1
2017-Aug-16 04:30N 51°60' E 003°52'611.5
2017-Aug-16 04:00N 51°59' E 003°42'5 9.7
2017-Aug-16 03:30N 51°58' E 003°35'4 7.5
2017-Aug-16 03:00N 51°57' E 003°29'4 8.1
2017-Aug-16 02:30N 51°55' E 003°23'4 7.6
2017-Aug-16 02:00N 51°54' E 003°17'5 7.7
2017-Aug-16 01:18N 51°53' E 003°08'3 8.0
2017-Aug-16 00:55N 51°52' E 003°04'4 8.1
2017-Aug-16 00:28N 51°51' E 002°58'4 8.1
2017-Aug-16 00:01N 51°49' E 002°53'4 8.5
2017-Aug-15 23:30N 51°48' E 002°46'4 8.8
2017-Aug-15 23:00N 51°46' E 002°40'4 8.9
2017-Aug-15 22:30N 51°44' E 002°34'5 9.7
2017-Aug-15 22:00N 51°40' E 002°29'510.9
2017-Aug-15 21:30N 51°36' E 002°23'611.2
2017-Aug-15 21:00N 51°31' E 002°18'611.4
2017-Aug-15 20:30N 51°27' E 002°13'510.4
2017-Aug-15 20:00N 51°22' E 002°09'611.5
2017-Aug-15 19:30N 51°19' E 002°01'713.5
2017-Aug-15 19:00N 51°15' E 001°53'714.0
2017-Aug-15 18:30N 51°10' E 001°45'714.3
2017-Aug-15 18:01N 51°04' E 001°38'715.0
2017-Aug-15 17:30N 50°58' E 001°31'713.8
2017-Aug-15 17:00N 50°52' E 001°26'10113.1
2017-Aug-15 09:15N 50°08' W 000°58'311.7
2017-Aug-15 08:59N 50°07' W 001°02'511.3
2017-Aug-15 08:30N 50°06' W 001°10'611.0
2017-Aug-15 08:00N 50°04' W 001°19'510.5
2017-Aug-15 07:30N 50°03' W 001°27'510.3
2017-Aug-15 07:00N 50°01' W 001°34'510.1
2017-Aug-15 06:30N 50°00' W 001°42'510.0
2017-Aug-15 06:00N 49°59' W 001°50'510.3
2017-Aug-15 05:30N 49°58' W 001°57'510.8
2017-Aug-15 05:00N 49°56' W 002°06'611.7
2017-Aug-15 04:29N 49°55' W 002°15'2012.7
2017-Aug-15 02:55N 49°50' W 002°45'613.3
2017-Aug-15 02:30N 49°49' W 002°53'813.6
2017-Aug-15 01:55N 49°44' W 003°03'613.7
2017-Aug-15 01:30N 49°42' W 003°11'713.6
2017-Aug-15 01:00N 49°39' W 003°20'913.7
2017-Aug-15 00:22N 49°34' W 003°32'1213.8
2017-Aug-14 23:29N 49°28' W 003°48'5914.2
2017-Aug-14 19:20N 48°59' W 005°07'514.0
2017-Aug-14 19:00N 48°57' W 005°13'814.2
2017-Aug-14 18:27N 48°53' W 005°23'1113.8
2017-Aug-14 17:39N 48°46' W 005°37'313.7
2017-Aug-14 17:25N 48°43' W 005°39'3513.1
2017-Aug-14 14:44N 48°11' W 005°59'1112.4
2017-Aug-14 13:48N 47°60' W 006°05'  
2017-Aug-11 06:01N 47°17' W 002°10'013.3
2017-Aug-11 06:00N 47°17' W 002°10'4 7.4
2017-Aug-11 05:25N 47°18' W 002°04'0 0.0
2017-Aug-11 04:46N 47°18' W 002°04'0 0.0
2017-Aug-11 04:25N 47°18' W 002°04'0 0.0
2017-Aug-11 03:58N 47°18' W 002°04'0 0.0
2017-Aug-11 02:55N 47°18' W 002°04'0 0.0
2017-Aug-11 02:19N 47°18' W 002°04'0 0.0
2017-Aug-11 01:58N 47°18' W 002°04'0 0.0
2017-Aug-11 01:25N 47°18' W 002°04'0 0.0
2017-Aug-11 00:58N 47°18' W 002°04'0 0.0
2017-Aug-11 00:28N 47°18' W 002°04'0 0.0
2017-Aug-10 23:55N 47°18' W 002°04'0 0.0
2017-Aug-10 23:25N 47°18' W 002°04'0 0.0
2017-Aug-10 22:52N 47°18' W 002°04'0 0.0
2017-Aug-10 22:25N 47°18' W 002°04'0 0.0
2017-Aug-10 21:55N 47°18' W 002°04'0 0.0
2017-Aug-10 21:28N 47°18' W 002°04'0 0.0
2017-Aug-10 20:55N 47°18' W 002°04'0 0.0
2017-Aug-10 20:19N 47°18' W 002°04'0 0.0
2017-Aug-10 08:13N 47°18' W 002°04'0 0.0
2017-Aug-10 06:46N 47°18' W 002°04'0 0.0
2017-Aug-10 06:22N 47°18' W 002°04'0 0.0
2017-Aug-10 05:56N 47°18' W 002°04'1 1.7
2017-Aug-10 05:30N 47°18' W 002°05'  
2017-Aug-07 19:43N 47°08' W 002°26'0 0.1
2017-Aug-07 19:16N 47°08' W 002°26'0 0.0
2017-Aug-07 01:40N 47°08' W 002°26'0 0.0
2017-Aug-07 01:22N 47°08' W 002°26'0 0.0
2017-Aug-07 00:04N 47°08' W 002°26'0 0.0
2017-Aug-06 23:58N 47°08' W 002°26'0 0.0
2017-Aug-06 23:30N 47°08' W 002°26'  

Dump ship's entire track history